sensor_id;sensor_type;location;lat;lon;timestamp;P1;durP1;ratioP1;P2;durP2;ratioP2
39994;SDS011;25686;51.908;10.418;2022-12-17T00:00:32;12.23;;;5.80;;
39994;SDS011;25686;51.908;10.418;2022-12-17T00:02:58;18.60;;;5.60;;
39994;SDS011;25686;51.908;10.418;2022-12-17T00:05:18;9.20;;;4.13;;
39994;SDS011;25686;51.908;10.418;2022-12-17T00:07:38;13.13;;;4.30;;
39994;SDS011;25686;51.908;10.418;2022-12-17T00:09:57;8.27;;;3.50;;
39994;SDS011;25686;51.908;10.418;2022-12-17T00:12:18;7.00;;;2.87;;
39994;SDS011;25686;51.908;10.418;2022-12-17T00:14:38;9.80;;;2.63;;
39994;SDS011;25686;51.908;10.418;2022-12-17T00:16:57;2.93;;;1.83;;
39994;SDS011;25686;51.908;10.418;2022-12-17T00:19:17;5.23;;;1.90;;
39994;SDS011;25686;51.908;10.418;2022-12-17T00:21:36;5.77;;;1.90;;
39994;SDS011;25686;51.908;10.418;2022-12-17T00:23:56;5.73;;;1.60;;
39994;SDS011;25686;51.908;10.418;2022-12-17T00:26:15;5.50;;;1.77;;
39994;SDS011;25686;51.908;10.418;2022-12-17T00:28:35;5.90;;;1.90;;
39994;SDS011;25686;51.908;10.418;2022-12-17T00:30:54;4.73;;;1.80;;
39994;SDS011;25686;51.908;10.418;2022-12-17T00:33:14;5.95;;;2.58;;
39994;SDS011;25686;51.908;10.418;2022-12-17T00:35:34;8.37;;;2.30;;
39994;SDS011;25686;51.908;10.418;2022-12-17T00:37:53;9.47;;;1.83;;
39994;SDS011;25686;51.908;10.418;2022-12-17T00:40:13;2.97;;;1.57;;
39994;SDS011;25686;51.908;10.418;2022-12-17T00:42:33;7.73;;;1.67;;
39994;SDS011;25686;51.908;10.418;2022-12-17T00:44:52;5.07;;;2.20;;
39994;SDS011;25686;51.908;10.418;2022-12-17T00:47:12;5.00;;;2.20;;
39994;SDS011;25686;51.908;10.418;2022-12-17T00:49:31;5.27;;;2.00;;
39994;SDS011;25686;51.908;10.418;2022-12-17T00:51:51;6.93;;;1.57;;
39994;SDS011;25686;51.908;10.418;2022-12-17T00:54:10;4.40;;;1.80;;
39994;SDS011;25686;51.908;10.418;2022-12-17T00:56:50;3.20;;;1.60;;
39994;SDS011;25686;51.908;10.418;2022-12-17T00:59:09;7.03;;;1.97;;
39994;SDS011;25686;51.908;10.418;2022-12-17T01:01:29;7.63;;;2.70;;
39994;SDS011;25686;51.908;10.418;2022-12-17T01:03:49;6.80;;;2.67;;
39994;SDS011;25686;51.908;10.418;2022-12-17T01:06:08;8.30;;;2.50;;
39994;SDS011;25686;51.908;10.418;2022-12-17T01:08:28;10.40;;;2.80;;
39994;SDS011;25686;51.908;10.418;2022-12-17T01:10:48;4.83;;;1.90;;
39994;SDS011;25686;51.908;10.418;2022-12-17T01:13:07;3.10;;;1.40;;
39994;SDS011;25686;51.908;10.418;2022-12-17T01:15:27;4.77;;;1.67;;
39994;SDS011;25686;51.908;10.418;2022-12-17T01:17:46;5.97;;;2.13;;
39994;SDS011;25686;51.908;10.418;2022-12-17T01:20:06;3.93;;;2.00;;
39994;SDS011;25686;51.908;10.418;2022-12-17T01:22:26;4.60;;;1.20;;
39994;SDS011;25686;51.908;10.418;2022-12-17T01:24:45;6.13;;;1.17;;
39994;SDS011;25686;51.908;10.418;2022-12-17T01:27:05;5.47;;;1.17;;
39994;SDS011;25686;51.908;10.418;2022-12-17T01:29:25;5.10;;;1.43;;
39994;SDS011;25686;51.908;10.418;2022-12-17T01:31:45;6.00;;;1.47;;
39994;SDS011;25686;51.908;10.418;2022-12-17T01:34:04;8.07;;;2.50;;
39994;SDS011;25686;51.908;10.418;2022-12-17T01:36:24;5.00;;;1.97;;
39994;SDS011;25686;51.908;10.418;2022-12-17T01:38:44;3.03;;;1.30;;
39994;SDS011;25686;51.908;10.418;2022-12-17T01:41:04;4.37;;;1.30;;
39994;SDS011;25686;51.908;10.418;2022-12-17T01:43:31;4.33;;;1.30;;
39994;SDS011;25686;51.908;10.418;2022-12-17T01:45:51;2.93;;;1.23;;
39994;SDS011;25686;51.908;10.418;2022-12-17T01:48:12;2.00;;;1.10;;
39994;SDS011;25686;51.908;10.418;2022-12-17T01:50:34;3.40;;;1.10;;
39994;SDS011;25686;51.908;10.418;2022-12-17T01:52:55;2.30;;;0.97;;
39994;SDS011;25686;51.908;10.418;2022-12-17T01:55:16;2.20;;;1.10;;
39994;SDS011;25686;51.908;10.418;2022-12-17T01:57:35;1.27;;;1.00;;
39994;SDS011;25686;51.908;10.418;2022-12-17T02:00:05;5.37;;;1.50;;
39994;SDS011;25686;51.908;10.418;2022-12-17T02:02:26;4.00;;;1.17;;
39994;SDS011;25686;51.908;10.418;2022-12-17T02:04:45;4.20;;;1.40;;
39994;SDS011;25686;51.908;10.418;2022-12-17T02:09:49;6.43;;;1.30;;
39994;SDS011;25686;51.908;10.418;2022-12-17T02:12:37;8.33;;;1.37;;
39994;SDS011;25686;51.908;10.418;2022-12-17T02:14:56;5.13;;;1.13;;
39994;SDS011;25686;51.908;10.418;2022-12-17T02:17:20;3.40;;;1.10;;
39994;SDS011;25686;51.908;10.418;2022-12-17T02:22:47;4.17;;;1.03;;
39994;SDS011;25686;51.908;10.418;2022-12-17T02:24:57;4.80;;;1.20;;
39994;SDS011;25686;51.908;10.418;2022-12-17T02:27:20;3.57;;;0.93;;
39994;SDS011;25686;51.908;10.418;2022-12-17T02:29:50;1.63;;;0.90;;
39994;SDS011;25686;51.908;10.418;2022-12-17T02:32:11;5.10;;;1.37;;
39994;SDS011;25686;51.908;10.418;2022-12-17T02:34:41;8.83;;;1.10;;
39994;SDS011;25686;51.908;10.418;2022-12-17T02:37:01;3.10;;;1.10;;
39994;SDS011;25686;51.908;10.418;2022-12-17T02:39:20;2.77;;;1.20;;
39994;SDS011;25686;51.908;10.418;2022-12-17T02:41:43;3.17;;;1.10;;
39994;SDS011;25686;51.908;10.418;2022-12-17T02:44:03;2.77;;;1.00;;
39994;SDS011;25686;51.908;10.418;2022-12-17T02:46:24;2.63;;;0.90;;
39994;SDS011;25686;51.908;10.418;2022-12-17T02:48:43;5.93;;;1.30;;
39994;SDS011;25686;51.908;10.418;2022-12-17T02:51:03;6.03;;;1.17;;
39994;SDS011;25686;51.908;10.418;2022-12-17T02:53:22;2.53;;;0.90;;
39994;SDS011;25686;51.908;10.418;2022-12-17T02:55:42;3.43;;;1.00;;
39994;SDS011;25686;51.908;10.418;2022-12-17T02:58:02;5.03;;;1.30;;
39994;SDS011;25686;51.908;10.418;2022-12-17T03:00:21;3.50;;;1.00;;
39994;SDS011;25686;51.908;10.418;2022-12-17T03:02:41;6.90;;;1.10;;
39994;SDS011;25686;51.908;10.418;2022-12-17T03:05:01;1.83;;;0.83;;
39994;SDS011;25686;51.908;10.418;2022-12-17T03:07:20;3.87;;;1.00;;
39994;SDS011;25686;51.908;10.418;2022-12-17T03:09:40;3.20;;;0.93;;
39994;SDS011;25686;51.908;10.418;2022-12-17T03:12:00;2.90;;;0.97;;
39994;SDS011;25686;51.908;10.418;2022-12-17T03:14:19;2.97;;;1.10;;
39994;SDS011;25686;51.908;10.418;2022-12-17T03:16:39;2.93;;;0.90;;
39994;SDS011;25686;51.908;10.418;2022-12-17T03:18:58;2.97;;;0.80;;
39994;SDS011;25686;51.908;10.418;2022-12-17T03:21:18;3.00;;;0.93;;
39994;SDS011;25686;51.908;10.418;2022-12-17T03:23:37;2.13;;;0.93;;
39994;SDS011;25686;51.908;10.418;2022-12-17T03:26:01;2.77;;;0.90;;
39994;SDS011;25686;51.908;10.418;2022-12-17T03:28:20;1.40;;;0.80;;
39994;SDS011;25686;51.908;10.418;2022-12-17T03:30:40;3.30;;;0.90;;
39994;SDS011;25686;51.908;10.418;2022-12-17T03:32:59;2.47;;;1.20;;
39994;SDS011;25686;51.908;10.418;2022-12-17T03:35:19;2.87;;;1.07;;
39994;SDS011;25686;51.908;10.418;2022-12-17T03:37:38;3.17;;;0.90;;
39994;SDS011;25686;51.908;10.418;2022-12-17T03:39:58;4.83;;;1.00;;
39994;SDS011;25686;51.908;10.418;2022-12-17T03:42:17;1.70;;;0.87;;
39994;SDS011;25686;51.908;10.418;2022-12-17T03:44:37;2.07;;;1.00;;
39994;SDS011;25686;51.908;10.418;2022-12-17T03:46:56;1.90;;;1.10;;
39994;SDS011;25686;51.908;10.418;2022-12-17T03:49:16;0.90;;;0.90;;
39994;SDS011;25686;51.908;10.418;2022-12-17T03:51:36;2.50;;;1.00;;
39994;SDS011;25686;51.908;10.418;2022-12-17T03:53:55;1.10;;;1.00;;
39994;SDS011;25686;51.908;10.418;2022-12-17T03:56:15;6.13;;;1.03;;
39994;SDS011;25686;51.908;10.418;2022-12-17T03:58:34;0.87;;;0.83;;
39994;SDS011;25686;51.908;10.418;2022-12-17T04:00:54;4.57;;;1.00;;
39994;SDS011;25686;51.908;10.418;2022-12-17T04:03:13;7.10;;;1.43;;
39994;SDS011;25686;51.908;10.418;2022-12-17T04:05:33;3.20;;;1.10;;
39994;SDS011;25686;51.908;10.418;2022-12-17T04:07:52;2.07;;;1.10;;
39994;SDS011;25686;51.908;10.418;2022-12-17T04:10:12;1.57;;;0.80;;
39994;SDS011;25686;51.908;10.418;2022-12-17T04:12:32;2.40;;;1.10;;
39994;SDS011;25686;51.908;10.418;2022-12-17T04:14:51;4.00;;;1.10;;
39994;SDS011;25686;51.908;10.418;2022-12-17T04:17:11;5.70;;;1.00;;
39994;SDS011;25686;51.908;10.418;2022-12-17T04:19:30;5.07;;;1.17;;
39994;SDS011;25686;51.908;10.418;2022-12-17T04:21:50;1.70;;;1.10;;
39994;SDS011;25686;51.908;10.418;2022-12-17T04:24:09;6.43;;;1.10;;
39994;SDS011;25686;51.908;10.418;2022-12-17T04:26:29;2.27;;;0.87;;
39994;SDS011;25686;51.908;10.418;2022-12-17T04:28:49;5.33;;;0.90;;
39994;SDS011;25686;51.908;10.418;2022-12-17T04:31:08;6.93;;;1.17;;
39994;SDS011;25686;51.908;10.418;2022-12-17T04:33:28;2.60;;;0.90;;
39994;SDS011;25686;51.908;10.418;2022-12-17T04:35:47;4.30;;;0.90;;
39994;SDS011;25686;51.908;10.418;2022-12-17T04:38:07;4.43;;;1.10;;
39994;SDS011;25686;51.908;10.418;2022-12-17T04:40:26;2.50;;;0.90;;
39994;SDS011;25686;51.908;10.418;2022-12-17T04:42:46;3.40;;;1.10;;
39994;SDS011;25686;51.908;10.418;2022-12-17T04:45:05;1.80;;;0.90;;
39994;SDS011;25686;51.908;10.418;2022-12-17T04:47:25;5.53;;;1.07;;
39994;SDS011;25686;51.908;10.418;2022-12-17T04:49:45;3.27;;;0.97;;
39994;SDS011;25686;51.908;10.418;2022-12-17T04:52:05;3.57;;;1.13;;
39994;SDS011;25686;51.908;10.418;2022-12-17T04:54:24;5.07;;;1.23;;
39994;SDS011;25686;51.908;10.418;2022-12-17T04:56:44;1.33;;;1.20;;
39994;SDS011;25686;51.908;10.418;2022-12-17T04:59:04;2.00;;;1.20;;
39994;SDS011;25686;51.908;10.418;2022-12-17T05:01:23;1.57;;;1.00;;
39994;SDS011;25686;51.908;10.418;2022-12-17T05:03:43;4.10;;;1.27;;
39994;SDS011;25686;51.908;10.418;2022-12-17T05:06:02;4.93;;;1.20;;
39994;SDS011;25686;51.908;10.418;2022-12-17T05:08:22;3.07;;;1.13;;
39994;SDS011;25686;51.908;10.418;2022-12-17T05:11:02;2.83;;;1.07;;
39994;SDS011;25686;51.908;10.418;2022-12-17T05:13:22;4.67;;;1.00;;
39994;SDS011;25686;51.908;10.418;2022-12-17T05:15:41;3.33;;;0.93;;
39994;SDS011;25686;51.908;10.418;2022-12-17T05:18:04;6.87;;;1.40;;
39994;SDS011;25686;51.908;10.418;2022-12-17T05:20:24;1.53;;;0.90;;
39994;SDS011;25686;51.908;10.418;2022-12-17T05:22:44;4.20;;;1.10;;
39994;SDS011;25686;51.908;10.418;2022-12-17T05:25:03;3.27;;;1.33;;
39994;SDS011;25686;51.908;10.418;2022-12-17T05:27:24;3.17;;;1.13;;
39994;SDS011;25686;51.908;10.418;2022-12-17T05:29:43;3.00;;;1.13;;
39994;SDS011;25686;51.908;10.418;2022-12-17T05:32:03;5.40;;;1.27;;
39994;SDS011;25686;51.908;10.418;2022-12-17T05:34:22;2.57;;;1.17;;
39994;SDS011;25686;51.908;10.418;2022-12-17T05:36:42;8.00;;;3.50;;
39994;SDS011;25686;51.908;10.418;2022-12-17T05:39:01;9.47;;;3.70;;
39994;SDS011;25686;51.908;10.418;2022-12-17T05:41:21;7.70;;;3.00;;
39994;SDS011;25686;51.908;10.418;2022-12-17T05:43:40;3.23;;;1.90;;
39994;SDS011;25686;51.908;10.418;2022-12-17T05:46:01;6.07;;;1.60;;
39994;SDS011;25686;51.908;10.418;2022-12-17T05:48:21;4.30;;;1.40;;
39994;SDS011;25686;51.908;10.418;2022-12-17T05:50:40;4.57;;;1.50;;
39994;SDS011;25686;51.908;10.418;2022-12-17T05:53:01;4.87;;;1.83;;
39994;SDS011;25686;51.908;10.418;2022-12-17T05:55:20;6.10;;;2.30;;
39994;SDS011;25686;51.908;10.418;2022-12-17T05:57:40;4.70;;;1.47;;
39994;SDS011;25686;51.908;10.418;2022-12-17T06:00:00;3.87;;;1.03;;
39994;SDS011;25686;51.908;10.418;2022-12-17T06:02:19;6.20;;;1.33;;
39994;SDS011;25686;51.908;10.418;2022-12-17T06:04:39;4.50;;;1.20;;
39994;SDS011;25686;51.908;10.418;2022-12-17T06:06:58;4.10;;;1.30;;
39994;SDS011;25686;51.908;10.418;2022-12-17T06:09:29;3.67;;;0.93;;
39994;SDS011;25686;51.908;10.418;2022-12-17T06:12:08;8.07;;;1.40;;
39994;SDS011;25686;51.908;10.418;2022-12-17T06:14:28;3.80;;;1.00;;
39994;SDS011;25686;51.908;10.418;2022-12-17T06:16:47;2.73;;;1.17;;
39994;SDS011;25686;51.908;10.418;2022-12-17T06:19:07;7.00;;;1.10;;
39994;SDS011;25686;51.908;10.418;2022-12-17T06:21:27;2.97;;;1.10;;
39994;SDS011;25686;51.908;10.418;2022-12-17T06:24:00;1.80;;;1.00;;
39994;SDS011;25686;51.908;10.418;2022-12-17T06:26:20;3.47;;;1.00;;
39994;SDS011;25686;51.908;10.418;2022-12-17T06:28:40;1.63;;;0.97;;
39994;SDS011;25686;51.908;10.418;2022-12-17T06:31:00;3.23;;;1.17;;
39994;SDS011;25686;51.908;10.418;2022-12-17T06:33:19;3.63;;;1.23;;
39994;SDS011;25686;51.908;10.418;2022-12-17T06:35:39;2.30;;;1.13;;
39994;SDS011;25686;51.908;10.418;2022-12-17T06:37:59;5.67;;;1.27;;
39994;SDS011;25686;51.908;10.418;2022-12-17T06:40:19;2.13;;;1.23;;
39994;SDS011;25686;51.908;10.418;2022-12-17T06:42:38;4.40;;;1.20;;
39994;SDS011;25686;51.908;10.418;2022-12-17T06:44:58;4.90;;;2.03;;
39994;SDS011;25686;51.908;10.418;2022-12-17T06:47:17;5.53;;;2.60;;
39994;SDS011;25686;51.908;10.418;2022-12-17T06:49:37;9.70;;;3.83;;
39994;SDS011;25686;51.908;10.418;2022-12-17T06:51:57;7.33;;;2.43;;
39994;SDS011;25686;51.908;10.418;2022-12-17T06:54:16;13.60;;;4.47;;
39994;SDS011;25686;51.908;10.418;2022-12-17T06:56:35;10.37;;;3.10;;
39994;SDS011;25686;51.908;10.418;2022-12-17T06:58:55;4.87;;;1.73;;
39994;SDS011;25686;51.908;10.418;2022-12-17T07:01:15;3.17;;;1.17;;
39994;SDS011;25686;51.908;10.418;2022-12-17T07:03:34;2.67;;;0.97;;
39994;SDS011;25686;51.908;10.418;2022-12-17T07:05:54;3.27;;;1.13;;
39994;SDS011;25686;51.908;10.418;2022-12-17T07:08:13;2.60;;;1.03;;
39994;SDS011;25686;51.908;10.418;2022-12-17T07:10:33;6.70;;;1.23;;
39994;SDS011;25686;51.908;10.418;2022-12-17T07:12:53;3.53;;;1.10;;
39994;SDS011;25686;51.908;10.418;2022-12-17T07:15:12;5.33;;;2.00;;
39994;SDS011;25686;51.908;10.418;2022-12-17T07:17:32;6.03;;;2.50;;
39994;SDS011;25686;51.908;10.418;2022-12-17T07:19:51;5.30;;;1.70;;
39994;SDS011;25686;51.908;10.418;2022-12-17T07:22:11;4.60;;;1.17;;
39994;SDS011;25686;51.908;10.418;2022-12-17T07:24:30;7.47;;;1.90;;
39994;SDS011;25686;51.908;10.418;2022-12-17T07:26:50;3.90;;;1.50;;
39994;SDS011;25686;51.908;10.418;2022-12-17T07:29:09;2.33;;;1.23;;
39994;SDS011;25686;51.908;10.418;2022-12-17T07:31:29;5.70;;;1.27;;
39994;SDS011;25686;51.908;10.418;2022-12-17T07:33:48;4.27;;;1.50;;
39994;SDS011;25686;51.908;10.418;2022-12-17T07:36:08;3.30;;;1.30;;
39994;SDS011;25686;51.908;10.418;2022-12-17T07:38:28;3.83;;;1.70;;
39994;SDS011;25686;51.908;10.418;2022-12-17T07:40:47;2.00;;;1.07;;
39994;SDS011;25686;51.908;10.418;2022-12-17T07:43:10;2.23;;;1.03;;
39994;SDS011;25686;51.908;10.418;2022-12-17T07:45:30;4.17;;;1.37;;
39994;SDS011;25686;51.908;10.418;2022-12-17T07:47:51;4.10;;;1.17;;
39994;SDS011;25686;51.908;10.418;2022-12-17T07:50:10;5.37;;;1.57;;
39994;SDS011;25686;51.908;10.418;2022-12-17T07:52:42;8.03;;;1.80;;
39994;SDS011;25686;51.908;10.418;2022-12-17T07:55:02;3.83;;;1.10;;
39994;SDS011;25686;51.908;10.418;2022-12-17T07:57:22;4.10;;;1.10;;
39994;SDS011;25686;51.908;10.418;2022-12-17T07:59:41;3.20;;;1.80;;
39994;SDS011;25686;51.908;10.418;2022-12-17T08:02:01;10.77;;;2.50;;
39994;SDS011;25686;51.908;10.418;2022-12-17T08:04:20;4.83;;;2.40;;
39994;SDS011;25686;51.908;10.418;2022-12-17T08:06:40;6.73;;;2.20;;
39994;SDS011;25686;51.908;10.418;2022-12-17T08:08:59;5.77;;;2.10;;
39994;SDS011;25686;51.908;10.418;2022-12-17T08:11:19;4.50;;;2.43;;
39994;SDS011;25686;51.908;10.418;2022-12-17T08:13:39;3.87;;;2.10;;
39994;SDS011;25686;51.908;10.418;2022-12-17T08:15:58;6.40;;;2.50;;
39994;SDS011;25686;51.908;10.418;2022-12-17T08:18:18;4.00;;;1.60;;
39994;SDS011;25686;51.908;10.418;2022-12-17T08:20:38;3.10;;;1.80;;
39994;SDS011;25686;51.908;10.418;2022-12-17T08:23:01;5.20;;;1.40;;
39994;SDS011;25686;51.908;10.418;2022-12-17T08:25:21;4.37;;;1.77;;
39994;SDS011;25686;51.908;10.418;2022-12-17T08:27:41;3.07;;;1.37;;
39994;SDS011;25686;51.908;10.418;2022-12-17T08:30:00;6.83;;;2.20;;
39994;SDS011;25686;51.908;10.418;2022-12-17T08:32:20;4.30;;;1.90;;
39994;SDS011;25686;51.908;10.418;2022-12-17T08:34:40;3.47;;;1.60;;
39994;SDS011;25686;51.908;10.418;2022-12-17T08:36:59;4.10;;;1.60;;
39994;SDS011;25686;51.908;10.418;2022-12-17T08:39:19;4.87;;;1.40;;
39994;SDS011;25686;51.908;10.418;2022-12-17T08:41:38;5.40;;;1.13;;
39994;SDS011;25686;51.908;10.418;2022-12-17T08:43:58;3.30;;;1.00;;
39994;SDS011;25686;51.908;10.418;2022-12-17T08:46:17;2.57;;;1.00;;
39994;SDS011;25686;51.908;10.418;2022-12-17T08:48:37;3.00;;;0.90;;
39994;SDS011;25686;51.908;10.418;2022-12-17T08:50:57;2.03;;;0.80;;
39994;SDS011;25686;51.908;10.418;2022-12-17T08:53:17;2.90;;;0.93;;
39994;SDS011;25686;51.908;10.418;2022-12-17T08:55:36;2.47;;;1.00;;
39994;SDS011;25686;51.908;10.418;2022-12-17T08:57:56;4.00;;;0.80;;
39994;SDS011;25686;51.908;10.418;2022-12-17T09:00:16;2.77;;;0.93;;
39994;SDS011;25686;51.908;10.418;2022-12-17T09:02:36;2.43;;;1.00;;
39994;SDS011;25686;51.908;10.418;2022-12-17T09:04:55;5.03;;;1.33;;
39994;SDS011;25686;51.908;10.418;2022-12-17T09:07:15;4.20;;;1.23;;
39994;SDS011;25686;51.908;10.418;2022-12-17T09:09:35;6.00;;;1.50;;
39994;SDS011;25686;51.908;10.418;2022-12-17T09:11:55;6.47;;;3.20;;
39994;SDS011;25686;51.908;10.418;2022-12-17T09:14:15;5.68;;;3.20;;
39994;SDS011;25686;51.908;10.418;2022-12-17T09:16:34;7.10;;;4.50;;
39994;SDS011;25686;51.908;10.418;2022-12-17T09:18:54;5.70;;;4.25;;
39994;SDS011;25686;51.908;10.418;2022-12-17T09:21:13;5.72;;;5.22;;
39994;SDS011;25686;51.908;10.418;2022-12-17T09:23:33;5.47;;;4.63;;
39994;SDS011;25686;51.908;10.418;2022-12-17T09:25:54;5.72;;;4.57;;
39994;SDS011;25686;51.908;10.418;2022-12-17T09:28:30;5.57;;;4.95;;
39994;SDS011;25686;51.908;10.418;2022-12-17T09:30:50;6.28;;;5.60;;
39994;SDS011;25686;51.908;10.418;2022-12-17T09:33:14;7.68;;;5.80;;
39994;SDS011;25686;51.908;10.418;2022-12-17T09:35:35;5.72;;;5.22;;
39994;SDS011;25686;51.908;10.418;2022-12-17T09:37:55;7.25;;;5.35;;
39994;SDS011;25686;51.908;10.418;2022-12-17T09:40:16;6.68;;;5.03;;
39994;SDS011;25686;51.908;10.418;2022-12-17T09:45:03;7.25;;;5.10;;
39994;SDS011;25686;51.908;10.418;2022-12-17T09:49:44;4.97;;;2.20;;
39994;SDS011;25686;51.908;10.418;2022-12-17T09:52:12;4.82;;;1.67;;
39994;SDS011;25686;51.908;10.418;2022-12-17T09:54:41;4.40;;;2.00;;
39994;SDS011;25686;51.908;10.418;2022-12-17T09:57:02;4.05;;;1.95;;
39994;SDS011;25686;51.908;10.418;2022-12-17T10:01:42;7.22;;;3.10;;
39994;SDS011;25686;51.908;10.418;2022-12-17T10:04:03;5.22;;;2.10;;
39994;SDS011;25686;51.908;10.418;2022-12-17T10:06:24;4.50;;;1.73;;
39994;SDS011;25686;51.908;10.418;2022-12-17T10:08:45;4.55;;;2.40;;
39994;SDS011;25686;51.908;10.418;2022-12-17T10:13:38;4.78;;;2.08;;
39994;SDS011;25686;51.908;10.418;2022-12-17T10:15:57;4.57;;;1.45;;
39994;SDS011;25686;51.908;10.418;2022-12-17T10:18:17;3.40;;;1.20;;
39994;SDS011;25686;51.908;10.418;2022-12-17T10:22:57;3.03;;;0.80;;
39994;SDS011;25686;51.908;10.418;2022-12-17T10:25:18;3.63;;;1.40;;
39994;SDS011;25686;51.908;10.418;2022-12-17T10:27:38;4.27;;;1.10;;
39994;SDS011;25686;51.908;10.418;2022-12-17T10:29:57;4.07;;;1.50;;
39994;SDS011;25686;51.908;10.418;2022-12-17T10:34:36;3.33;;;1.17;;
39994;SDS011;25686;51.908;10.418;2022-12-17T10:36:56;3.00;;;1.10;;
39994;SDS011;25686;51.908;10.418;2022-12-17T10:39:21;2.17;;;0.97;;
39994;SDS011;25686;51.908;10.418;2022-12-17T10:41:41;4.40;;;1.07;;
39994;SDS011;25686;51.908;10.418;2022-12-17T10:44:01;3.80;;;0.97;;
39994;SDS011;25686;51.908;10.418;2022-12-17T10:46:25;2.30;;;1.00;;
39994;SDS011;25686;51.908;10.418;2022-12-17T10:48:45;3.47;;;1.40;;
39994;SDS011;25686;51.908;10.418;2022-12-17T10:53:38;4.53;;;2.17;;
39994;SDS011;25686;51.908;10.418;2022-12-17T10:55:57;1.97;;;1.30;;
39994;SDS011;25686;51.908;10.418;2022-12-17T10:58:25;3.17;;;0.97;;
39994;SDS011;25686;51.908;10.418;2022-12-17T11:00:46;2.90;;;0.70;;
39994;SDS011;25686;51.908;10.418;2022-12-17T11:03:21;4.13;;;0.87;;
39994;SDS011;25686;51.908;10.418;2022-12-17T11:05:41;4.00;;;0.87;;
39994;SDS011;25686;51.908;10.418;2022-12-17T11:08:01;3.23;;;0.73;;
39994;SDS011;25686;51.908;10.418;2022-12-17T11:10:21;3.20;;;0.90;;
39994;SDS011;25686;51.908;10.418;2022-12-17T11:15:16;4.13;;;1.10;;
39994;SDS011;25686;51.908;10.418;2022-12-17T11:17:37;4.20;;;0.90;;
39994;SDS011;25686;51.908;10.418;2022-12-17T11:20:05;2.40;;;0.70;;
39994;SDS011;25686;51.908;10.418;2022-12-17T11:22:42;3.70;;;1.10;;
39994;SDS011;25686;51.908;10.418;2022-12-17T11:25:05;3.30;;;1.00;;
39994;SDS011;25686;51.908;10.418;2022-12-17T11:27:30;3.10;;;0.90;;
39994;SDS011;25686;51.908;10.418;2022-12-17T11:29:51;3.13;;;0.80;;
39994;SDS011;25686;51.908;10.418;2022-12-17T11:32:29;4.00;;;0.90;;
39994;SDS011;25686;51.908;10.418;2022-12-17T11:34:55;1.30;;;0.80;;
39994;SDS011;25686;51.908;10.418;2022-12-17T11:37:22;3.43;;;0.60;;
39994;SDS011;25686;51.908;10.418;2022-12-17T11:39:54;2.80;;;0.80;;
39994;SDS011;25686;51.908;10.418;2022-12-17T11:42:38;2.53;;;0.90;;
39994;SDS011;25686;51.908;10.418;2022-12-17T11:45:01;0.73;;;0.40;;
39994;SDS011;25686;51.908;10.418;2022-12-17T11:47:32;1.63;;;0.60;;
39994;SDS011;25686;51.908;10.418;2022-12-17T11:54:47;2.40;;;0.70;;
39994;SDS011;25686;51.908;10.418;2022-12-17T11:59:43;2.20;;;0.60;;
39994;SDS011;25686;51.908;10.418;2022-12-17T12:02:11;2.40;;;0.50;;
39994;SDS011;25686;51.908;10.418;2022-12-17T12:07:14;2.97;;;0.90;;
39994;SDS011;25686;51.908;10.418;2022-12-17T12:16:56;1.97;;;0.50;;
39994;SDS011;25686;51.908;10.418;2022-12-17T12:19:42;3.47;;;0.83;;
39994;SDS011;25686;51.908;10.418;2022-12-17T12:22:16;1.63;;;0.83;;
39994;SDS011;25686;51.908;10.418;2022-12-17T12:24:47;4.73;;;0.93;;
39994;SDS011;25686;51.908;10.418;2022-12-17T12:27:35;4.63;;;0.97;;
39994;SDS011;25686;51.908;10.418;2022-12-17T12:30:00;4.67;;;0.77;;
39994;SDS011;25686;51.908;10.418;2022-12-17T12:32:25;3.27;;;0.73;;
39994;SDS011;25686;51.908;10.418;2022-12-17T12:34:47;7.10;;;0.80;;
39994;SDS011;25686;51.908;10.418;2022-12-17T12:37:10;2.47;;;0.63;;
39994;SDS011;25686;51.908;10.418;2022-12-17T12:39:43;2.37;;;0.80;;
39994;SDS011;25686;51.908;10.418;2022-12-17T12:42:07;3.63;;;1.00;;
39994;SDS011;25686;51.908;10.418;2022-12-17T12:44:51;3.13;;;1.00;;
39994;SDS011;25686;51.908;10.418;2022-12-17T12:47:17;2.57;;;0.83;;
39994;SDS011;25686;51.908;10.418;2022-12-17T12:52:01;3.87;;;0.70;;
39994;SDS011;25686;51.908;10.418;2022-12-17T12:56:44;1.33;;;0.63;;
39994;SDS011;25686;51.908;10.418;2022-12-17T12:59:15;1.50;;;0.70;;
39994;SDS011;25686;51.908;10.418;2022-12-17T13:01:40;1.20;;;0.60;;
39994;SDS011;25686;51.908;10.418;2022-12-17T13:04:00;6.30;;;0.97;;
39994;SDS011;25686;51.908;10.418;2022-12-17T13:06:43;3.37;;;0.90;;
39994;SDS011;25686;51.908;10.418;2022-12-17T13:08:45;1.10;;;0.60;;
39994;SDS011;25686;51.908;10.418;2022-12-17T13:10:46;2.87;;;0.80;;
39994;SDS011;25686;51.908;10.418;2022-12-17T13:12:47;5.70;;;0.90;;
39994;SDS011;25686;51.908;10.418;2022-12-17T13:16:53;3.10;;;1.00;;
39994;SDS011;25686;51.908;10.418;2022-12-17T13:19:02;4.00;;;1.20;;
39994;SDS011;25686;51.908;10.418;2022-12-17T13:21:04;4.60;;;0.80;;
39994;SDS011;25686;51.908;10.418;2022-12-17T13:23:16;3.37;;;1.00;;
39994;SDS011;25686;51.908;10.418;2022-12-17T13:25:25;1.63;;;0.83;;
39994;SDS011;25686;51.908;10.418;2022-12-17T13:29:36;3.93;;;1.27;;
39994;SDS011;25686;51.908;10.418;2022-12-17T13:33:58;8.27;;;1.80;;
39994;SDS011;25686;51.908;10.418;2022-12-17T13:36:16;2.53;;;0.90;;
39994;SDS011;25686;51.908;10.418;2022-12-17T13:40:32;3.07;;;1.43;;
39994;SDS011;25686;51.908;10.418;2022-12-17T13:42:37;3.67;;;1.10;;
39994;SDS011;25686;51.908;10.418;2022-12-17T13:44:39;4.23;;;1.33;;
39994;SDS011;25686;51.908;10.418;2022-12-17T13:46:41;3.00;;;1.40;;
39994;SDS011;25686;51.908;10.418;2022-12-17T13:48:43;30.03;;;10.07;;
39994;SDS011;25686;51.908;10.418;2022-12-17T13:50:55;16.30;;;5.67;;
39994;SDS011;25686;51.908;10.418;2022-12-17T13:53:07;15.23;;;4.60;;
39994;SDS011;25686;51.908;10.418;2022-12-17T13:55:12;9.90;;;3.10;;
39994;SDS011;25686;51.908;10.418;2022-12-17T13:59:18;7.33;;;2.63;;
39994;SDS011;25686;51.908;10.418;2022-12-17T14:01:20;3.47;;;1.60;;
39994;SDS011;25686;51.908;10.418;2022-12-17T14:03:21;3.10;;;1.70;;
39994;SDS011;25686;51.908;10.418;2022-12-17T14:05:26;7.03;;;1.90;;
39994;SDS011;25686;51.908;10.418;2022-12-17T14:07:29;3.60;;;1.80;;
39994;SDS011;25686;51.908;10.418;2022-12-17T14:09:34;6.03;;;2.00;;
39994;SDS011;25686;51.908;10.418;2022-12-17T14:11:35;3.63;;;2.20;;
39994;SDS011;25686;51.908;10.418;2022-12-17T14:13:56;4.63;;;2.20;;
39994;SDS011;25686;51.908;10.418;2022-12-17T14:15:57;6.60;;;2.40;;
39994;SDS011;25686;51.908;10.418;2022-12-17T14:17:58;4.57;;;2.80;;
39994;SDS011;25686;51.908;10.418;2022-12-17T14:22:07;16.30;;;7.83;;
39994;SDS011;25686;51.908;10.418;2022-12-17T14:24:10;23.43;;;11.80;;
39994;SDS011;25686;51.908;10.418;2022-12-17T14:26:12;16.47;;;9.43;;
39994;SDS011;25686;51.908;10.418;2022-12-17T14:30:44;8.77;;;4.40;;
39994;SDS011;25686;51.908;10.418;2022-12-17T14:32:45;7.17;;;4.10;;
39994;SDS011;25686;51.908;10.418;2022-12-17T14:34:46;5.83;;;2.83;;
39994;SDS011;25686;51.908;10.418;2022-12-17T14:36:51;5.93;;;2.33;;
39994;SDS011;25686;51.908;10.418;2022-12-17T14:38:57;3.43;;;1.70;;
39994;SDS011;25686;51.908;10.418;2022-12-17T14:41:16;3.20;;;1.10;;
39994;SDS011;25686;51.908;10.418;2022-12-17T14:43:36;3.07;;;1.20;;
39994;SDS011;25686;51.908;10.418;2022-12-17T14:45:37;3.67;;;0.97;;
39994;SDS011;25686;51.908;10.418;2022-12-17T14:47:59;3.30;;;1.07;;
39994;SDS011;25686;51.908;10.418;2022-12-17T14:52:11;2.20;;;0.90;;